sensor_id;sensor_type;location;lat;lon;timestamp;temperature;humidity
37478;DHT22;23334;54.316;10.182;2022-12-18T00:02:20;-5.00;99.90
37478;DHT22;23334;54.316;10.182;2022-12-18T00:04:47;-5.20;99.90
37478;DHT22;23334;54.316;10.182;2022-12-18T00:07:13;-4.80;99.90
37478;DHT22;23334;54.316;10.182;2022-12-18T00:09:40;-5.10;99.90
37478;DHT22;23334;54.316;10.182;2022-12-18T00:12:08;-4.70;99.90
37478;DHT22;23334;54.316;10.182;2022-12-18T00:14:34;-4.40;99.90
37478;DHT22;23334;54.316;10.182;2022-12-18T00:17:01;-4.50;99.90
37478;DHT22;23334;54.316;10.182;2022-12-18T00:21:55;-4.90;99.90
37478;DHT22;23334;54.316;10.182;2022-12-18T00:26:48;-4.70;99.90
37478;DHT22;23334;54.316;10.182;2022-12-18T00:29:24;-5.00;99.90
37478;DHT22;23334;54.316;10.182;2022-12-18T00:34:32;-4.80;99.90
37478;DHT22;23334;54.316;10.182;2022-12-18T00:37:01;-5.20;99.90
37478;DHT22;23334;54.316;10.182;2022-12-18T00:39:28;-5.00;99.90
37478;DHT22;23334;54.316;10.182;2022-12-18T00:41:53;-4.80;99.90
37478;DHT22;23334;54.316;10.182;2022-12-18T00:44:38;-4.90;99.90
37478;DHT22;23334;54.316;10.182;2022-12-18T00:47:05;-4.80;99.90
37478;DHT22;23334;54.316;10.182;2022-12-18T00:49:32;-4.70;99.90
37478;DHT22;23334;54.316;10.182;2022-12-18T00:54:25;-5.00;99.90
37478;DHT22;23334;54.316;10.182;2022-12-18T00:56:55;-5.10;99.90
37478;DHT22;23334;54.316;10.182;2022-12-18T00:59:23;-4.80;99.90
37478;DHT22;23334;54.316;10.182;2022-12-18T01:01:50;-4.60;99.90
37478;DHT22;23334;54.316;10.182;2022-12-18T01:04:17;-4.90;99.90
37478;DHT22;23334;54.316;10.182;2022-12-18T01:06:44;-4.90;99.90
37478;DHT22;23334;54.316;10.182;2022-12-18T01:09:12;-5.50;99.90
37478;DHT22;23334;54.316;10.182;2022-12-18T01:11:39;-5.00;99.90
37478;DHT22;23334;54.316;10.182;2022-12-18T01:22:00;-5.00;99.90
37478;DHT22;23334;54.316;10.182;2022-12-18T01:24:48;-5.10;99.90
37478;DHT22;23334;54.316;10.182;2022-12-18T01:27:14;-5.40;99.90
37478;DHT22;23334;54.316;10.182;2022-12-18T01:29:45;-5.70;99.90
37478;DHT22;23334;54.316;10.182;2022-12-18T01:32:23;-5.30;99.90
37478;DHT22;23334;54.316;10.182;2022-12-18T01:42:21;-5.60;99.90
37478;DHT22;23334;54.316;10.182;2022-12-18T02:36:59;-5.10;99.90
37478;DHT22;23334;54.316;10.182;2022-12-18T02:39:27;-5.40;99.90
37478;DHT22;23334;54.316;10.182;2022-12-18T02:41:58;-5.40;99.90
37478;DHT22;23334;54.316;10.182;2022-12-18T02:44:47;-5.20;99.90
37478;DHT22;23334;54.316;10.182;2022-12-18T02:47:16;-5.00;99.90
37478;DHT22;23334;54.316;10.182;2022-12-18T02:50:03;-5.30;99.90
37478;DHT22;23334;54.316;10.182;2022-12-18T03:00:54;-5.60;99.90
37478;DHT22;23334;54.316;10.182;2022-12-18T03:03:34;-5.60;99.90
37478;DHT22;23334;54.316;10.182;2022-12-18T03:06:19;-5.40;99.90
37478;DHT22;23334;54.316;10.182;2022-12-18T03:08:56;-5.00;99.90
37478;DHT22;23334;54.316;10.182;2022-12-18T03:11:29;-5.30;99.90
37478;DHT22;23334;54.316;10.182;2022-12-18T03:14:16;-5.40;99.90
37478;DHT22;23334;54.316;10.182;2022-12-18T03:17:13;-3.80;99.90
37478;DHT22;23334;54.316;10.182;2022-12-18T03:19:43;-5.40;99.90
37478;DHT22;23334;54.316;10.182;2022-12-18T03:22:13;-5.60;99.90
37478;DHT22;23334;54.316;10.182;2022-12-18T03:24:41;-4.90;99.90
37478;DHT22;23334;54.316;10.182;2022-12-18T03:27:12;-5.40;99.90
37478;DHT22;23334;54.316;10.182;2022-12-18T03:29:50;-5.20;99.90
37478;DHT22;23334;54.316;10.182;2022-12-18T03:32:29;-5.70;99.90
37478;DHT22;23334;54.316;10.182;2022-12-18T03:35:03;-5.40;99.90
37478;DHT22;23334;54.316;10.182;2022-12-18T03:40:07;-5.00;99.90
37478;DHT22;23334;54.316;10.182;2022-12-18T03:42:58;-4.80;99.90
37478;DHT22;23334;54.316;10.182;2022-12-18T03:45:32;-5.20;99.90
37478;DHT22;23334;54.316;10.182;2022-12-18T03:48:13;-4.80;99.90
37478;DHT22;23334;54.316;10.182;2022-12-18T03:50:58;-4.90;99.90
37478;DHT22;23334;54.316;10.182;2022-12-18T03:53:39;-5.10;99.90
37478;DHT22;23334;54.316;10.182;2022-12-18T03:56:08;-5.20;99.90
37478;DHT22;23334;54.316;10.182;2022-12-18T03:58:37;-5.10;99.90
37478;DHT22;23334;54.316;10.182;2022-12-18T04:01:06;-5.30;99.90
37478;DHT22;23334;54.316;10.182;2022-12-18T04:03:37;-5.30;99.90
37478;DHT22;23334;54.316;10.182;2022-12-18T04:06:03;-5.20;99.90
37478;DHT22;23334;54.316;10.182;2022-12-18T04:08:30;-5.30;99.90
37478;DHT22;23334;54.316;10.182;2022-12-18T04:10:56;-5.30;99.90
37478;DHT22;23334;54.316;10.182;2022-12-18T04:13:34;-5.30;99.90
37478;DHT22;23334;54.316;10.182;2022-12-18T04:16:07;-5.00;99.90
37478;DHT22;23334;54.316;10.182;2022-12-18T04:18:33;-5.40;99.90
37478;DHT22;23334;54.316;10.182;2022-12-18T04:20:58;-5.30;99.90
37478;DHT22;23334;54.316;10.182;2022-12-18T04:23:26;-5.20;99.90
37478;DHT22;23334;54.316;10.182;2022-12-18T04:33:15;-5.30;99.90
37478;DHT22;23334;54.316;10.182;2022-12-18T04:35:42;-5.30;99.90
37478;DHT22;23334;54.316;10.182;2022-12-18T04:38:14;-5.30;99.90
37478;DHT22;23334;54.316;10.182;2022-12-18T04:40:48;-5.10;99.90
37478;DHT22;23334;54.316;10.182;2022-12-18T04:43:15;-5.30;99.90
37478;DHT22;23334;54.316;10.182;2022-12-18T04:45:40;-5.50;99.90
37478;DHT22;23334;54.316;10.182;2022-12-18T04:48:07;-5.20;99.90
37478;DHT22;23334;54.316;10.182;2022-12-18T04:50:34;-5.50;99.90
37478;DHT22;23334;54.316;10.182;2022-12-18T04:53:01;-6.00;99.90
37478;DHT22;23334;54.316;10.182;2022-12-18T04:55:28;-7.40;99.90
37478;DHT22;23334;54.316;10.182;2022-12-18T04:57:55;-5.30;99.90
37478;DHT22;23334;54.316;10.182;2022-12-18T05:00:25;-5.40;99.90
37478;DHT22;23334;54.316;10.182;2022-12-18T05:02:51;-5.40;99.90
37478;DHT22;23334;54.316;10.182;2022-12-18T05:05:19;-5.30;99.90
37478;DHT22;23334;54.316;10.182;2022-12-18T05:07:49;-5.60;99.90
37478;DHT22;23334;54.316;10.182;2022-12-18T05:10:17;-3.70;99.90
37478;DHT22;23334;54.316;10.182;2022-12-18T05:12:45;-5.60;99.90
37478;DHT22;23334;54.316;10.182;2022-12-18T05:15:31;-5.70;99.90
37478;DHT22;23334;54.316;10.182;2022-12-18T05:18:17;-5.60;99.90
37478;DHT22;23334;54.316;10.182;2022-12-18T05:20:46;-5.70;99.90
37478;DHT22;23334;54.316;10.182;2022-12-18T05:23:13;-5.70;99.90
37478;DHT22;23334;54.316;10.182;2022-12-18T05:25:47;-5.80;99.90
37478;DHT22;23334;54.316;10.182;2022-12-18T05:28:36;-5.70;99.90
37478;DHT22;23334;54.316;10.182;2022-12-18T05:31:05;-5.70;99.90
37478;DHT22;23334;54.316;10.182;2022-12-18T05:33:39;-6.00;99.90
37478;DHT22;23334;54.316;10.182;2022-12-18T05:36:09;-5.90;99.90
37478;DHT22;23334;54.316;10.182;2022-12-18T05:46:19;-6.20;99.90
37478;DHT22;23334;54.316;10.182;2022-12-18T05:48:59;-6.10;99.90
37478;DHT22;23334;54.316;10.182;2022-12-18T05:54:27;-6.00;99.90
37478;DHT22;23334;54.316;10.182;2022-12-18T05:56:56;-6.00;99.90
37478;DHT22;23334;54.316;10.182;2022-12-18T05:59:23;-6.20;99.90
37478;DHT22;23334;54.316;10.182;2022-12-18T06:01:56;-6.50;99.90
37478;DHT22;23334;54.316;10.182;2022-12-18T06:04:26;-6.10;99.90
37478;DHT22;23334;54.316;10.182;2022-12-18T06:07:14;-6.30;99.90
37478;DHT22;23334;54.316;10.182;2022-12-18T06:10:03;-6.50;99.90
37478;DHT22;23334;54.316;10.182;2022-12-18T06:12:29;-6.40;99.90
37478;DHT22;23334;54.316;10.182;2022-12-18T06:14:54;-6.30;99.90
37478;DHT22;23334;54.316;10.182;2022-12-18T06:19:46;-6.60;99.90
37478;DHT22;23334;54.316;10.182;2022-12-18T06:22:11;-6.60;99.90
37478;DHT22;23334;54.316;10.182;2022-12-18T06:24:37;-6.70;99.90
37478;DHT22;23334;54.316;10.182;2022-12-18T06:27:02;-6.50;99.90
37478;DHT22;23334;54.316;10.182;2022-12-18T06:29:28;-6.80;99.90
37478;DHT22;23334;54.316;10.182;2022-12-18T06:31:53;-6.50;99.90
37478;DHT22;23334;54.316;10.182;2022-12-18T06:36:45;-6.70;99.90
37478;DHT22;23334;54.316;10.182;2022-12-18T06:41:36;-6.40;99.90
37478;DHT22;23334;54.316;10.182;2022-12-18T06:46:29;-6.80;99.90
37478;DHT22;23334;54.316;10.182;2022-12-18T06:51:23;-6.70;99.90
37478;DHT22;23334;54.316;10.182;2022-12-18T06:53:49;-7.00;99.90
37478;DHT22;23334;54.316;10.182;2022-12-18T06:56:15;-6.80;99.90
37478;DHT22;23334;54.316;10.182;2022-12-18T06:58:41;-6.70;99.90
37478;DHT22;23334;54.316;10.182;2022-12-18T07:01:09;-6.80;99.90
37478;DHT22;23334;54.316;10.182;2022-12-18T07:03:36;-6.90;99.90
37478;DHT22;23334;54.316;10.182;2022-12-18T07:06:01;-6.80;99.90
37478;DHT22;23334;54.316;10.182;2022-12-18T07:08:29;-6.80;99.90
37478;DHT22;23334;54.316;10.182;2022-12-18T07:10:54;-6.80;99.90
37478;DHT22;23334;54.316;10.182;2022-12-18T07:13:20;-6.80;99.90
37478;DHT22;23334;54.316;10.182;2022-12-18T07:15:45;-6.90;99.90
37478;DHT22;23334;54.316;10.182;2022-12-18T07:23:06;-6.80;99.90
37478;DHT22;23334;54.316;10.182;2022-12-18T07:25:35;-7.00;99.90
37478;DHT22;23334;54.316;10.182;2022-12-18T07:28:02;-6.70;99.90
37478;DHT22;23334;54.316;10.182;2022-12-18T07:30:28;-7.10;99.90
37478;DHT22;23334;54.316;10.182;2022-12-18T07:32:54;-6.60;99.90
37478;DHT22;23334;54.316;10.182;2022-12-18T07:35:19;-6.60;99.90
37478;DHT22;23334;54.316;10.182;2022-12-18T07:37:45;-6.70;99.90
37478;DHT22;23334;54.316;10.182;2022-12-18T07:42:37;-6.60;99.90
37478;DHT22;23334;54.316;10.182;2022-12-18T07:45:03;-6.70;99.90
37478;DHT22;23334;54.316;10.182;2022-12-18T07:49:57;-6.40;99.90
37478;DHT22;23334;54.316;10.182;2022-12-18T07:52:23;-6.60;99.90
37478;DHT22;23334;54.316;10.182;2022-12-18T07:54:48;-6.50;99.90
37478;DHT22;23334;54.316;10.182;2022-12-18T07:57:15;-6.40;99.90
37478;DHT22;23334;54.316;10.182;2022-12-18T08:02:07;-6.40;99.90
37478;DHT22;23334;54.316;10.182;2022-12-18T08:04:33;-6.40;99.90
37478;DHT22;23334;54.316;10.182;2022-12-18T08:06:58;-6.40;99.90
37478;DHT22;23334;54.316;10.182;2022-12-18T08:09:23;-6.30;99.90
37478;DHT22;23334;54.316;10.182;2022-12-18T08:14:15;-6.30;99.90
37478;DHT22;23334;54.316;10.182;2022-12-18T08:16:40;-6.30;99.90
37478;DHT22;23334;54.316;10.182;2022-12-18T08:24:00;-5.90;99.90
37478;DHT22;23334;54.316;10.182;2022-12-18T08:28:56;-5.90;99.90
37478;DHT22;23334;54.316;10.182;2022-12-18T08:31:24;-5.50;99.90
37478;DHT22;23334;54.316;10.182;2022-12-18T08:33:51;-5.50;99.90
37478;DHT22;23334;54.316;10.182;2022-12-18T08:36:18;-5.20;99.90
37478;DHT22;23334;54.316;10.182;2022-12-18T08:41:11;-4.70;99.90
37478;DHT22;23334;54.316;10.182;2022-12-18T08:56:12;-4.90;99.90
37478;DHT22;23334;54.316;10.182;2022-12-18T09:01:05;-5.20;99.90
37478;DHT22;23334;54.316;10.182;2022-12-18T09:03:31;-5.30;99.90
37478;DHT22;23334;54.316;10.182;2022-12-18T09:05:57;-5.10;99.90
37478;DHT22;23334;54.316;10.182;2022-12-18T09:08:23;-5.10;99.90
37478;DHT22;23334;54.316;10.182;2022-12-18T09:10:49;-5.00;99.90
37478;DHT22;23334;54.316;10.182;2022-12-18T09:13:16;-4.90;99.90
37478;DHT22;23334;54.316;10.182;2022-12-18T09:15:49;-4.80;99.90
37478;DHT22;23334;54.316;10.182;2022-12-18T09:18:17;-4.30;99.90
37478;DHT22;23334;54.316;10.182;2022-12-18T09:20:43;-4.20;99.90
37478;DHT22;23334;54.316;10.182;2022-12-18T09:23:09;-4.10;99.90
37478;DHT22;23334;54.316;10.182;2022-12-18T09:25:35;-3.80;99.90
37478;DHT22;23334;54.316;10.182;2022-12-18T09:32:59;-2.40;99.90
37478;DHT22;23334;54.316;10.182;2022-12-18T09:35:25;-1.80;99.90
37478;DHT22;23334;54.316;10.182;2022-12-18T09:37:53;-0.80;99.90
37478;DHT22;23334;54.316;10.182;2022-12-18T09:40:22;-0.10;99.90
37478;DHT22;23334;54.316;10.182;2022-12-18T09:42:54;0.40;99.90
37478;DHT22;23334;54.316;10.182;2022-12-18T09:47:48;0.70;99.90
37478;DHT22;23334;54.316;10.182;2022-12-18T09:50:34;0.10;99.90
37478;DHT22;23334;54.316;10.182;2022-12-18T09:53:06;0.40;99.90
37478;DHT22;23334;54.316;10.182;2022-12-18T09:55:40;-0.10;99.90
37478;DHT22;23334;54.316;10.182;2022-12-18T09:58:15;-0.20;99.90
37478;DHT22;23334;54.316;10.182;2022-12-18T10:00:42;-0.30;99.90
37478;DHT22;23334;54.316;10.182;2022-12-18T10:03:12;-0.30;99.90
37478;DHT22;23334;54.316;10.182;2022-12-18T10:06:00;-0.60;99.90
37478;DHT22;23334;54.316;10.182;2022-12-18T10:17:26;-1.00;99.90
37478;DHT22;23334;54.316;10.182;2022-12-18T10:20:01;-1.70;99.90
37478;DHT22;23334;54.316;10.182;2022-12-18T10:25:12;-2.00;99.90
37478;DHT22;23334;54.316;10.182;2022-12-18T10:27:41;-2.40;99.90
37478;DHT22;23334;54.316;10.182;2022-12-18T10:38:07;-3.00;99.90
37478;DHT22;23334;54.316;10.182;2022-12-18T10:54:01;-1.90;99.90
37478;DHT22;23334;54.316;10.182;2022-12-18T10:56:29;-2.10;99.90
37478;DHT22;23334;54.316;10.182;2022-12-18T11:01:22;-2.40;99.90
37478;DHT22;23334;54.316;10.182;2022-12-18T11:08:56;-2.50;99.90
37478;DHT22;23334;54.316;10.182;2022-12-18T11:23:51;-2.00;99.90
37478;DHT22;23334;54.316;10.182;2022-12-18T11:26:17;-2.20;99.90
37478;DHT22;23334;54.316;10.182;2022-12-18T11:28:51;-2.10;99.90
37478;DHT22;23334;54.316;10.182;2022-12-18T11:31:23;-2.20;99.90
37478;DHT22;23334;54.316;10.182;2022-12-18T11:36:21;-2.40;99.90
37478;DHT22;23334;54.316;10.182;2022-12-18T11:41:37;-2.60;99.90
37478;DHT22;23334;54.316;10.182;2022-12-18T11:44:41;-2.60;99.90
37478;DHT22;23334;54.316;10.182;2022-12-18T11:47:39;-2.60;99.90
37478;DHT22;23334;54.316;10.182;2022-12-18T11:50:17;-2.50;99.90
37478;DHT22;23334;54.316;10.182;2022-12-18T11:52:43;-2.90;99.90
37478;DHT22;23334;54.316;10.182;2022-12-18T11:55:14;-2.60;99.90
37478;DHT22;23334;54.316;10.182;2022-12-18T12:00:22;-2.50;99.90
37478;DHT22;23334;54.316;10.182;2022-12-18T12:11:41;-2.30;99.90
37478;DHT22;23334;54.316;10.182;2022-12-18T12:16:59;-2.40;99.90
37478;DHT22;23334;54.316;10.182;2022-12-18T12:19:44;-2.30;99.90
37478;DHT22;23334;54.316;10.182;2022-12-18T12:22:38;-2.20;99.90
37478;DHT22;23334;54.316;10.182;2022-12-18T12:25:52;-2.20;99.90
37478;DHT22;23334;54.316;10.182;2022-12-18T12:32:04;-2.30;99.90
37478;DHT22;23334;54.316;10.182;2022-12-18T12:34:17;-2.30;99.90
37478;DHT22;23334;54.316;10.182;2022-12-18T12:39:42;-2.50;99.90
37478;DHT22;23334;54.316;10.182;2022-12-18T12:42:19;-3.00;99.90
37478;DHT22;23334;54.316;10.182;2022-12-18T12:55:16;-2.40;99.90
37478;DHT22;23334;54.316;10.182;2022-12-18T12:57:51;-2.30;99.90
37478;DHT22;23334;54.316;10.182;2022-12-18T13:08:05;-2.30;99.90
37478;DHT22;23334;54.316;10.182;2022-12-18T13:10:34;-2.30;99.90
37478;DHT22;23334;54.316;10.182;2022-12-18T13:13:07;-2.70;99.90
37478;DHT22;23334;54.316;10.182;2022-12-18T13:15:44;-2.60;99.90
37478;DHT22;23334;54.316;10.182;2022-12-18T13:20:42;-3.10;99.90
37478;DHT22;23334;54.316;10.182;2022-12-18T14:14:05;-4.00;99.90
37478;DHT22;23334;54.316;10.182;2022-12-18T14:16:33;-4.20;99.90
37478;DHT22;23334;54.316;10.182;2022-12-18T14:18:59;-4.20;99.90
37478;DHT22;23334;54.316;10.182;2022-12-18T14:32:09;-4.40;99.90
37478;DHT22;23334;54.316;10.182;2022-12-18T14:34:35;-4.40;99.90
37478;DHT22;23334;54.316;10.182;2022-12-18T14:37:01;-4.60;99.90
37478;DHT22;23334;54.316;10.182;2022-12-18T14:39:26;-4.50;99.90
37478;DHT22;23334;54.316;10.182;2022-12-18T14:44:18;-4.50;99.90
37478;DHT22;23334;54.316;10.182;2022-12-18T15:07:08;-4.70;99.90
37478;DHT22;23334;54.316;10.182;2022-12-18T15:09:36;-4.50;99.90
37478;DHT22;23334;54.316;10.182;2022-12-18T15:12:02;-4.60;99.90
37478;DHT22;23334;54.316;10.182;2022-12-18T15:14:39;-4.40;99.90
37478;DHT22;23334;54.316;10.182;2022-12-18T15:19:41;-4.70;99.90
37478;DHT22;23334;54.316;10.182;2022-12-18T15:27:26;-4.80;99.90
37478;DHT22;23334;54.316;10.182;2022-12-18T16:54:12;-4.60;99.90
37478;DHT22;23334;54.316;10.182;2022-12-18T16:56:37;-4.70;99.90
37478;DHT22;23334;54.316;10.182;2022-12-18T17:01:31;-4.40;99.90
37478;DHT22;23334;54.316;10.182;2022-12-18T17:06:28;-4.40;99.90
37478;DHT22;23334;54.316;10.182;2022-12-18T17:28:26;-4.50;99.90
37478;DHT22;23334;54.316;10.182;2022-12-18T18:58:53;-3.40;99.90
37478;DHT22;23334;54.316;10.182;2022-12-18T19:01:19;-3.60;99.90
37478;DHT22;23334;54.316;10.182;2022-12-18T19:03:47;-3.60;99.90
37478;DHT22;23334;54.316;10.182;2022-12-18T19:06:24;-3.40;99.90
37478;DHT22;23334;54.316;10.182;2022-12-18T19:11:17;-3.30;99.90
37478;DHT22;23334;54.316;10.182;2022-12-18T19:18:55;-3.40;99.90
37478;DHT22;23334;54.316;10.182;2022-12-18T19:21:21;-3.30;99.90
37478;DHT22;23334;54.316;10.182;2022-12-18T19:23:47;-3.30;99.90
37478;DHT22;23334;54.316;10.182;2022-12-18T19:26:14;-3.50;99.90
37478;DHT22;23334;54.316;10.182;2022-12-18T19:28:39;-3.50;99.90
37478;DHT22;23334;54.316;10.182;2022-12-18T19:31:07;-3.50;99.90
37478;DHT22;23334;54.316;10.182;2022-12-18T19:36:08;-3.40;99.90
37478;DHT22;23334;54.316;10.182;2022-12-18T19:38:33;-3.50;99.90
37478;DHT22;23334;54.316;10.182;2022-12-18T19:40:59;-3.40;99.90
37478;DHT22;23334;54.316;10.182;2022-12-18T19:48:20;-3.40;99.90
37478;DHT22;23334;54.316;10.182;2022-12-18T19:50:45;-3.60;99.90
37478;DHT22;23334;54.316;10.182;2022-12-18T19:53:11;-3.50;99.90
37478;DHT22;23334;54.316;10.182;2022-12-18T19:55:40;-3.40;99.90
37478;DHT22;23334;54.316;10.182;2022-12-18T20:00:32;-3.50;99.90
37478;DHT22;23334;54.316;10.182;2022-12-18T20:02:57;-3.30;99.90
37478;DHT22;23334;54.316;10.182;2022-12-18T20:05:23;-3.30;99.90
37478;DHT22;23334;54.316;10.182;2022-12-18T20:07:50;-3.30;99.90
37478;DHT22;23334;54.316;10.182;2022-12-18T20:12:42;-3.30;99.90
37478;DHT22;23334;54.316;10.182;2022-12-18T20:15:08;-3.20;99.90
37478;DHT22;23334;54.316;10.182;2022-12-18T20:17:34;-3.30;99.90
37478;DHT22;23334;54.316;10.182;2022-12-18T20:19:59;-2.40;99.90
37478;DHT22;23334;54.316;10.182;2022-12-18T20:22:25;-3.30;99.90
37478;DHT22;23334;54.316;10.182;2022-12-18T20:24:50;-3.10;99.90
37478;DHT22;23334;54.316;10.182;2022-12-18T20:27:16;-3.10;99.90
37478;DHT22;23334;54.316;10.182;2022-12-18T20:29:41;-3.10;99.90
37478;DHT22;23334;54.316;10.182;2022-12-18T20:32:08;-3.00;99.90
37478;DHT22;23334;54.316;10.182;2022-12-18T20:34:33;-3.10;99.90
37478;DHT22;23334;54.316;10.182;2022-12-18T20:36:59;-3.00;99.90
37478;DHT22;23334;54.316;10.182;2022-12-18T20:39:24;-2.80;99.90
37478;DHT22;23334;54.316;10.182;2022-12-18T20:41:52;-2.90;99.90
37478;DHT22;23334;54.316;10.182;2022-12-18T20:44:17;-3.00;99.90
37478;DHT22;23334;54.316;10.182;2022-12-18T20:46:43;-2.80;99.90
37478;DHT22;23334;54.316;10.182;2022-12-18T20:49:08;-3.00;99.90
37478;DHT22;23334;54.316;10.182;2022-12-18T20:51:34;-2.70;99.90
37478;DHT22;23334;54.316;10.182;2022-12-18T20:54:00;-2.60;99.90
37478;DHT22;23334;54.316;10.182;2022-12-18T20:56:26;-2.70;99.90
37478;DHT22;23334;54.316;10.182;2022-12-18T20:58:57;-2.80;99.90
37478;DHT22;23334;54.316;10.182;2022-12-18T21:01:25;-3.10;99.90
37478;DHT22;23334;54.316;10.182;2022-12-18T21:03:51;-2.80;99.90
37478;DHT22;23334;54.316;10.182;2022-12-18T21:16:35;-2.50;99.90
37478;DHT22;23334;54.316;10.182;2022-12-18T21:21:29;-2.50;99.90
37478;DHT22;23334;54.316;10.182;2022-12-18T21:23:55;-2.40;99.90
37478;DHT22;23334;54.316;10.182;2022-12-18T21:26:23;-2.50;99.90
37478;DHT22;23334;54.316;10.182;2022-12-18T21:28:57;-2.70;99.90
37478;DHT22;23334;54.316;10.182;2022-12-18T21:31:25;-2.30;99.90
37478;DHT22;23334;54.316;10.182;2022-12-18T21:33:51;-2.40;99.90
37478;DHT22;23334;54.316;10.182;2022-12-18T21:36:17;-2.10;99.90
37478;DHT22;23334;54.316;10.182;2022-12-18T21:38:43;-2.30;99.90
37478;DHT22;23334;54.316;10.182;2022-12-18T21:41:09;-2.60;99.90
37478;DHT22;23334;54.316;10.182;2022-12-18T21:43:55;-2.40;99.90
37478;DHT22;23334;54.316;10.182;2022-12-18T21:46:30;-2.40;99.90
37478;DHT22;23334;54.316;10.182;2022-12-18T21:48:55;-2.40;99.90
37478;DHT22;23334;54.316;10.182;2022-12-18T21:51:21;-2.50;99.90
37478;DHT22;23334;54.316;10.182;2022-12-18T21:53:46;-2.40;99.90
37478;DHT22;23334;54.316;10.182;2022-12-18T21:56:12;-2.40;99.90
37478;DHT22;23334;54.316;10.182;2022-12-18T21:58:37;-2.30;99.90
37478;DHT22;23334;54.316;10.182;2022-12-18T22:01:03;-2.40;99.90
37478;DHT22;23334;54.316;10.182;2022-12-18T22:03:29;-2.50;99.90
37478;DHT22;23334;54.316;10.182;2022-12-18T22:05:57;-2.40;99.90
37478;DHT22;23334;54.316;10.182;2022-12-18T22:08:23;-2.30;99.90
37478;DHT22;23334;54.316;10.182;2022-12-18T22:10:48;-2.40;99.90
37478;DHT22;23334;54.316;10.182;2022-12-18T22:13:14;-2.40;99.90
37478;DHT22;23334;54.316;10.182;2022-12-18T22:15:40;-2.20;99.90
37478;DHT22;23334;54.316;10.182;2022-12-18T22:18:05;-2.30;99.90
37478;DHT22;23334;54.316;10.182;2022-12-18T22:20:31;-2.30;99.90
37478;DHT22;23334;54.316;10.182;2022-12-18T22:22:57;-2.20;99.90
37478;DHT22;23334;54.316;10.182;2022-12-18T22:25:23;-2.20;99.90
37478;DHT22;23334;54.316;10.182;2022-12-18T22:27:49;-2.20;99.90
37478;DHT22;23334;54.316;10.182;2022-12-18T22:30:33;-2.30;99.90
37478;DHT22;23334;54.316;10.182;2022-12-18T22:32:59;-2.20;99.90
37478;DHT22;23334;54.316;10.182;2022-12-18T22:35:26;-2.30;99.90
37478;DHT22;23334;54.316;10.182;2022-12-18T22:38:02;-2.50;99.90
37478;DHT22;23334;54.316;10.182;2022-12-18T22:40:28;-2.80;99.90
37478;DHT22;23334;54.316;10.182;2022-12-18T22:42:53;-2.30;99.90
37478;DHT22;23334;54.316;10.182;2022-12-18T22:45:20;-2.40;99.90
37478;DHT22;23334;54.316;10.182;2022-12-18T22:47:45;-2.40;99.90
37478;DHT22;23334;54.316;10.182;2022-12-18T22:50:12;-2.40;99.90
37478;DHT22;23334;54.316;10.182;2022-12-18T22:52:38;-2.40;99.90
37478;DHT22;23334;54.316;10.182;2022-12-18T22:55:04;-2.30;99.90
37478;DHT22;23334;54.316;10.182;2022-12-18T22:57:30;-2.40;99.90
37478;DHT22;23334;54.316;10.182;2022-12-18T22:59:56;-2.50;99.90
37478;DHT22;23334;54.316;10.182;2022-12-18T23:02:22;-2.50;99.90
37478;DHT22;23334;54.316;10.182;2022-12-18T23:04:47;-2.50;99.90
37478;DHT22;23334;54.316;10.182;2022-12-18T23:07:13;-2.60;99.90
37478;DHT22;23334;54.316;10.182;2022-12-18T23:09:39;-2.50;99.90
37478;DHT22;23334;54.316;10.182;2022-12-18T23:12:05;-2.60;99.90
37478;DHT22;23334;54.316;10.182;2022-12-18T23:14:30;-2.60;99.90
37478;DHT22;23334;54.316;10.182;2022-12-18T23:19:22;-2.60;99.90
37478;DHT22;23334;54.316;10.182;2022-12-18T23:21:48;-2.60;99.90
37478;DHT22;23334;54.316;10.182;2022-12-18T23:24:14;-2.70;99.90
37478;DHT22;23334;54.316;10.182;2022-12-18T23:26:40;-2.70;99.90
37478;DHT22;23334;54.316;10.182;2022-12-18T23:29:06;-2.70;99.90
37478;DHT22;23334;54.316;10.182;2022-12-18T23:34:00;-2.60;99.90
37478;DHT22;23334;54.316;10.182;2022-12-18T23:36:26;-2.60;99.90
37478;DHT22;23334;54.316;10.182;2022-12-18T23:38:54;-2.80;99.90
37478;DHT22;23334;54.316;10.182;2022-12-18T23:41:22;-2.90;99.90
37478;DHT22;23334;54.316;10.182;2022-12-18T23:43:48;-3.00;99.90
37478;DHT22;23334;54.316;10.182;2022-12-18T23:46:22;-2.80;99.90
37478;DHT22;23334;54.316;10.182;2022-12-18T23:48:48;-2.70;99.90
37478;DHT22;23334;54.316;10.182;2022-12-18T23:51:15;-2.50;99.90
37478;DHT22;23334;54.316;10.182;2022-12-18T23:53:41;-2.90;99.90
37478;DHT22;23334;54.316;10.182;2022-12-18T23:56:08;-2.80;99.90
37478;DHT22;23334;54.316;10.182;2022-12-18T23:58:34;-2.70;99.90
